Flight Track Log - Related Links

Times and Time Zones

All times are in EDT time to prevent confusion due to time zone crossing. See the N70RB flight status page for this flight to view local times or setup timezone preferences in your user account.

Time Position Orientation Groundspeed Altitude Reporting Facility
EDT Latitude Longitude Course Direction KTS MPH feet Rate Location/Type
Wed 09:50:14 PM 42.9158 -85.3706 355° North 147 169 5,500  Level Minneapolis Center
Wed 09:51:16 PM 42.9561 -85.3692 North 147 169 5,500  Level Minneapolis Center
Wed 09:52:17 PM 43.0050 -85.3669 North 147 169 5,500  Level Minneapolis Center
Wed 09:53:18 PM 43.0447 -85.3639 North 146 168 5,500  Level Minneapolis Center
Wed 09:54:00 PM 43.1722 -85.3723 355° North  Level Estimated
Wed 09:54:20 PM 43.0853 -85.3631 North 146 168 5,500  Level Minneapolis Center
Wed 09:55:00 PM 43.2085 -85.3770 355° North  Level Estimated
Wed 09:55:21 PM 43.1247 -85.3608 North 144 166 5,500  Level Minneapolis Center
Wed 09:56:23 PM 43.1644 -85.3583 North 144 166 5,500  Level Minneapolis Center
Wed 09:57:24 PM 43.2039 -85.3572 North 143 165 5,500  Level Minneapolis Center
Wed 09:58:26 PM 43.2447 -85.3569 360° North 145 167 5,500  Level Minneapolis Center
Wed 09:59:28 PM 43.2936 -85.3539 North 146 168 5,500  Level Minneapolis Center
Wed 10:00:29 PM 43.3336 -85.3511 North 146 168 5,500  Level Minneapolis Center
Wed 10:01:36 PM 43.3736 -85.3483 North 144 166 5,500  Level Chicago Center
Wed 10:02:37 PM 43.4131 -85.3450 North 144 166 5,500  Level Chicago Center
Wed 10:03:39 PM 43.4597 -85.3439 North 140 161 5,500  Level Chicago Center
Wed 10:04:40 PM 43.4975 -85.3514 352° North 138 159 5,500  Level Chicago Center
Wed 10:05:42 PM 43.5347 -85.3592 351° North 136 157 5,500  Level Chicago Center
Wed 10:06:43 PM 43.5725 -85.3692 349° North 138 159 5,500  Level Chicago Center
Wed 10:07:40 PM 43.6025 -85.3756 351° North 138 159 5,500  Level Minneapolis Center
Wed 10:08:41 PM 43.6469 -85.3856 351° North 136 157 5,500  Level Minneapolis Center
Wed 10:09:43 PM 43.6847 -85.3931 352° North 137 158 5,500  Level Minneapolis Center
Wed 10:10:44 PM 43.7225 -85.4011 351° North 138 159 5,500  Level Minneapolis Center
Wed 10:11:46 PM 43.7614 -85.4089 352° North 140 161 5,500  Level Minneapolis Center
Wed 10:12:47 PM 43.7994 -85.4183 350° North 140 161 5,500  Level Minneapolis Center
Wed 10:13:49 PM 43.8394 -85.4233 355° North 143 165 5,500  Level Minneapolis Center
Wed 10:14:50 PM 43.8872 -85.4278 356° North 144 166 5,500  Level Minneapolis Center
Wed 10:15:52 PM 43.9269 -85.4331 355° North 144 166 5,500  Level Minneapolis Center
Wed 10:16:53 PM 43.9675 -85.4372 356° North 146 168 5,500  Level Minneapolis Center
Wed 10:17:55 PM 44.0081 -85.4403 357° North 146 168 5,500  Level Minneapolis Center
Wed 10:18:56 PM 44.0481 -85.4461 354° North 145 167 5,500  Level Minneapolis Center
Wed 10:19:58 PM 44.0942 -85.4497 357° North 147 169 5,500  Level Minneapolis Center
Wed 10:20:59 PM 44.1342 -85.4531 357° North 146 168 5,500  Level Minneapolis Center
Wed 10:22:01 PM 44.1747 -85.4581 355° North 146 168 5,500  Level Minneapolis Center
Wed 10:23:02 PM 44.2150 -85.4625 355° North 145 167 5,500  Level Minneapolis Center
Wed 10:24:04 PM 44.2558 -85.4667 356° North 146 168 5,500  Level Minneapolis Center
Wed 10:25:05 PM 44.2953 -85.4692 357° North 144 166 5,500  Level Minneapolis Center
Wed 10:26:07 PM 44.3361 -85.4736 356° North 146 168 5,500  Level Minneapolis Center
Wed 10:27:08 PM 44.3853 -85.4764 358° North 147 169 5,500  Level Minneapolis Center
Wed 10:28:10 PM 44.4256 -85.4819 354° North 147 169 5,500 -146 Level Minneapolis Center
Wed 10:29:11 PM 44.4642 -85.4878 354° North 144 166 5,200 -390 Descending Minneapolis Center
Wed 10:30:13 PM 44.5028 -85.4978 350° North 143 165 4,700 -439 Descending Minneapolis Center
Wed 10:31:14 PM 44.5417 -85.5086 349° North 143 165 4,300 -488 Descending Minneapolis Center
Wed 10:32:16 PM 44.5806 -85.5214 347° North 143 165 3,700 -732 Descending Minneapolis Center
Wed 10:33:17 PM 44.6206 -85.5344 347° North 145 167 2,800 -885 Descending Minneapolis Center
Wed 10:35:00 PM 44.6795 -85.5647 340° North  Level FlightAware Approximate
Wed 10:42:00 PM 44.7333 -85.5667 North  Level FlightAware Approximate

Login

Don't have an account? Register now (free) for customized features, flight alerts, and more!